Ana Sayfa
METAR-TAF:

METAR-TAF

Havaalanları :

Butler, Pensilvanya, Amerika Birleşik Devletleri

Enlem: 40-47N, Boylam: 079-57W, yükseklik: 380 m

Güncel hava durumu gözlemi

Rapor saat 13:56 UTC de 38 dakika önce yapıldı.
Rüzgar güney/güneybatıdan 3 kt
Sıcaklık -6°C
Nem 79%
Basınç 1029 hPa
Görüş mesafesi: 16.1 km
Açık gökyüzü

METAR: KBTP 131356Z AUTO 21003KT 10SM CLR M06/M09 A3038 RMK AO2 SLP314 T10561089 FZRANO

Saat: 09:34 (14:34 UTC)


TAF: eksik

4.000'den fazla havaalanı için hava durumu gözlemleri ve tahminleri (METAR ve TAF raporları).

Kullanılabilir istasyonlar harita üzerinde sarı ve kırmızı noktalarla gösterilir.

İstasyonun adını görmek için fareyi noktanın üzerinde gezdirin.

Sonrasında hava gözlem ve tahminlerini görmek için tıklayın.

Haritayı değiştirmek için: yaklaştırmak için siyah artı işaretli yeşil düğmeye ve uzaklaştırmak için de eksi işaretli düğmeye hızla tıklayın; bitişik haritalar için yeşil okları kullanın.


METAR-TAF: